Time;durP1;ratioP1;P1;durP2;ratioP2;P2;SDS_P1;SDS_P2;PMS_P1;PMS_P2;Temp;Humidity;BMP_temperature;BMP_pressure;BME280_temperature;BME280_humidity;BME280_pressure;Samples;Min_cycle;Max_cycle;Signal;HPM_P1;HPM_P2
2021/03/02 00:02:20;;;;;;;51.05;24.23;;;4.70;97.60;;;;;;5012510;28;20053;-68
2021/03/02 00:04:46;;;;;;;49.47;24.25;;;4.70;97.50;;;;;;5025643;28;20042;-68
2021/03/02 00:07:14;;;;;;;49.88;24.88;;;4.80;97.70;;;;;;5025441;28;20114;-68
2021/03/02 00:09:40;;;;;;;46.42;24.13;;;4.80;97.60;;;;;;5019133;28;20050;-68
2021/03/02 00:12:08;;;;;;;44.78;23.02;;;4.70;97.80;;;;;;5018877;28;20050;-68
2021/03/02 00:14:38;;;;;;;46.92;23.70;;;4.70;97.50;;;;;;5012362;28;20041;-68
2021/03/02 00:17:24;;;;;;;49.38;23.55;;;4.70;97.50;;;;;;5025209;28;20053;-68
2021/03/02 00:20:03;;;;;;;52.35;25.25;;;4.60;97.60;;;;;;5025539;28;20113;-68
2021/03/02 00:22:33;;;;;;;55.50;26.70;;;4.50;97.90;;;;;;5025093;28;20060;-68
2021/03/02 00:25:03;;;;;;;59.47;25.23;;;4.60;98.20;;;;;;5019841;28;20042;-68
2021/03/02 00:27:30;;;;;;;67.47;27.15;;;4.50;98.80;;;;;;5025039;28;20053;-68
2021/03/02 00:29:56;;;;;;;58.53;25.30;;;4.50;98.50;;;;;;5023905;28;20580;-68
2021/03/02 00:32:22;;;;;;;58.58;25.15;;;4.50;98.30;;;;;;5022488;28;20060;-68
2021/03/02 00:34:49;;;;;;;54.25;25.83;;;4.60;98.00;;;;;;5025747;28;20050;-68
2021/03/02 00:37:15;;;;;;;55.13;26.08;;;4.50;98.20;;;;;;5020953;28;20065;-68
2021/03/02 00:39:41;;;;;;;51.85;25.05;;;4.40;98.30;;;;;;5017394;28;20049;-68
2021/03/02 00:42:07;;;;;;;56.22;25.38;;;4.50;98.10;;;;;;5025908;28;20088;-68
2021/03/02 00:44:34;;;;;;;69.72;25.55;;;4.60;98.00;;;;;;5025885;28;20042;-68
2021/03/02 00:47:01;;;;;;;74.43;24.77;;;4.50;98.10;;;;;;5025069;28;20046;-68
2021/03/02 00:49:26;;;;;;;58.90;24.05;;;4.50;98.10;;;;;;5025303;28;20073;-68
2021/03/02 00:51:52;;;;;;;56.75;25.63;;;4.40;98.60;;;;;;5025661;28;20145;-68
2021/03/02 00:54:18;;;;;;;64.85;24.65;;;4.30;98.60;;;;;;5025489;28;20046;-68
2021/03/02 00:56:45;;;;;;;57.65;23.48;;;4.30;98.40;;;;;;5011440;28;20057;-68
2021/03/02 00:59:11;;;;;;;60.70;23.67;;;4.40;98.10;;;;;;5015703;28;20046;-68
2021/03/02 01:01:37;;;;;;;54.85;25.20;;;4.40;98.10;;;;;;5018836;28;20108;-68
2021/03/02 01:04:04;;;;;;;58.63;25.58;;;4.50;97.90;;;;;;5014541;28;20428;-68
2021/03/02 01:06:30;;;;;;;53.80;25.85;;;4.30;98.50;;;;;;5024734;28;20593;-68
2021/03/02 01:08:56;;;;;;;56.30;25.10;;;4.30;98.40;;;;;;5027231;28;20049;-68
2021/03/02 01:11:22;;;;;;;58.25;27.17;;;4.30;98.30;;;;;;5028784;28;20100;-68
2021/03/02 01:13:48;;;;;;;59.72;26.00;;;4.30;98.30;;;;;;5028998;28;20045;-68
2021/03/02 01:16:14;;;;;;;77.05;25.63;;;4.30;98.40;;;;;;5029257;28;20172;-68
2021/03/02 01:18:40;;;;;;;67.82;25.83;;;4.30;98.40;;;;;;5027769;28;20048;-68
2021/03/02 01:21:06;;;;;;;61.08;26.77;;;4.20;98.50;;;;;;5029038;28;20050;-68
2021/03/02 01:23:31;;;;;;;53.03;24.83;;;4.30;98.20;;;;;;5023280;28;20058;-68
2021/03/02 01:25:58;;;;;;;58.08;25.23;;;4.20;98.50;;;;;;5028514;28;20046;-68
2021/03/02 01:28:24;;;;;;;55.67;24.33;;;4.20;98.50;;;;;;5028756;28;20065;-68
2021/03/02 01:30:50;;;;;;;70.78;25.83;;;4.20;98.50;;;;;;5028260;28;20053;-68
2021/03/02 01:33:15;;;;;;;77.47;24.58;;;4.20;98.50;;;;;;5027870;28;20049;-68
2021/03/02 01:35:41;;;;;;;96.50;25.92;;;4.20;98.50;;;;;;5028266;28;20052;-68
2021/03/02 01:38:07;;;;;;;88.80;27.42;;;4.10;98.60;;;;;;5020195;28;20042;-68
2021/03/02 01:40:33;;;;;;;73.75;24.75;;;4.10;98.60;;;;;;5009799;28;20047;-68
2021/03/02 01:42:59;;;;;;;58.35;24.88;;;4.10;98.50;;;;;;5028911;28;20145;-68
2021/03/02 01:45:25;;;;;;;64.82;26.42;;;4.10;98.50;;;;;;5028071;28;20046;-68
2021/03/02 01:47:52;;;;;;;64.38;27.38;;;4.10;98.80;;;;;;5027832;28;20049;-68
2021/03/02 01:50:20;;;;;;;61.08;28.33;;;4.10;98.70;;;;;;5028718;28;20045;-68
2021/03/02 01:52:46;;;;;;;67.75;27.35;;;4.10;98.80;;;;;;5015311;28;20084;-68
2021/03/02 01:55:15;;;;;;;78.28;25.60;;;4.10;98.80;;;;;;5028024;28;20076;-68
2021/03/02 01:57:41;;;;;;;71.50;26.38;;;4.10;98.70;;;;;;5015044;28;20076;-68
2021/03/02 02:00:16;;;;;;;107.93;27.10;;;4.10;98.70;;;;;;5027879;28;20069;-68
2021/03/02 02:02:59;;;;;;;92.85;27.33;;;4.10;98.70;;;;;;5027930;28;20070;-68
2021/03/02 02:05:26;;;;;;;74.15;24.23;;;4.10;98.60;;;;;;5027693;28;20096;-68
2021/03/02 02:07:56;;;;;;;84.75;26.38;;;4.00;98.60;;;;;;5027449;28;20041;-68
2021/03/02 02:10:58;;;;;;;61.00;25.70;;;4.10;98.50;;;;;;5014440;28;20077;-68
2021/03/02 02:13:38;;;;;;;68.40;27.15;;;4.00;98.70;;;;;;4948174;29;20056;-68
2021/03/02 02:16:06;;;;;;;;;;;4.00;98.40;;;;;;4948404;29;20503;-68
2021/03/02 02:18:37;;;;;;;;;;;4.00;98.70;;;;;;4947728;29;19923;-68
2021/03/02 02:21:18;;;;;;;63.20;24.45;;;4.00;98.50;;;;;;4946663;29;19923;-68
2021/03/02 02:24:11;;;;;;;61.72;26.10;;;3.90;98.50;;;;;;4945836;29;20043;-68
2021/03/02 02:26:57;;;;;;;66.15;26.98;;;3.90;98.70;;;;;;4943790;29;20059;-68
2021/03/02 02:29:31;;;;;;;64.85;26.05;;;4.00;98.60;;;;;;4947057;29;20055;-68
2021/03/02 02:31:59;;;;;;;64.70;26.27;;;4.10;98.00;;;;;;4947007;29;20083;-68
2021/03/02 02:34:26;;;;;;;61.83;25.90;;;4.00;98.40;;;;;;4947514;29;20044;-68
2021/03/02 02:36:55;;;;;;;61.97;24.10;;;3.90;98.60;;;;;;4947444;29;20147;-68
2021/03/02 02:39:22;;;;;;;65.78;26.33;;;4.00;98.30;;;;;;4947013;29;20052;-68
2021/03/02 02:41:48;;;;;;;66.82;27.88;;;4.00;98.40;;;;;;4947656;29;20052;-68
2021/03/02 02:44:16;;;;;;;64.22;24.88;;;3.90;98.40;;;;;;4946935;29;20062;-68
2021/03/02 02:46:43;;;;;;;57.58;25.65;;;3.80;98.70;;;;;;4946800;29;20152;-68
2021/03/02 02:49:11;;;;;;;63.97;26.45;;;3.80;98.80;;;;;;4981024;28;20055;-68
2021/03/02 02:51:38;;;;;;;71.63;26.08;;;3.70;98.70;;;;;;5025637;28;20049;-68
2021/03/02 02:54:06;;;;;;;98.07;26.63;;;3.80;98.70;;;;;;5027111;28;20383;-68
2021/03/02 02:56:35;;;;;;;70.72;26.15;;;3.80;98.90;;;;;;5026956;28;20046;-68
2021/03/02 02:59:08;;;;;;;93.40;26.70;;;3.80;98.80;;;;;;5027061;28;20085;-68
2021/03/02 03:01:38;;;;;;;61.17;25.02;;;3.80;98.70;;;;;;5026590;28;20054;-68
2021/03/02 03:04:08;;;;;;;86.57;25.80;;;3.80;98.60;;;;;;5026750;28;20057;-68
2021/03/02 03:06:39;;;;;;;87.30;27.20;;;3.80;98.70;;;;;;5026752;28;20053;-68
2021/03/02 03:09:06;;;;;;;77.28;26.00;;;3.80;98.50;;;;;;5026777;28;20065;-68
2021/03/02 03:11:42;;;;;;;95.07;26.02;;;3.90;98.70;;;;;;5026986;28;20150;-68
2021/03/02 03:14:11;;;;;;;89.15;27.02;;;3.80;98.60;;;;;;5026858;28;20065;-68
2021/03/02 03:16:40;;;;;;;86.93;27.33;;;3.70;98.90;;;;;;5027083;28;20104;-68
2021/03/02 03:19:11;;;;;;;87.18;26.73;;;3.90;98.30;;;;;;5026406;28;20042;-68
2021/03/02 03:21:38;;;;;;;77.88;25.50;;;3.70;98.90;;;;;;5026078;28;20041;-68
2021/03/02 03:24:04;;;;;;;66.07;26.70;;;3.70;99.00;;;;;;5022512;28;20413;-68
2021/03/02 03:26:33;;;;;;;84.13;28.17;;;3.70;98.80;;;;;;5012860;28;20041;-68
2021/03/02 03:29:01;;;;;;;83.45;26.23;;;3.70;98.90;;;;;;5025888;28;20513;-68
2021/03/02 03:31:28;;;;;;;97.95;28.95;;;3.70;99.00;;;;;;5025682;28;20064;-68
2021/03/02 03:33:56;;;;;;;80.25;26.13;;;3.70;99.00;;;;;;5012689;28;20062;-68
2021/03/02 03:36:24;;;;;;;74.70;26.23;;;3.70;99.10;;;;;;5013702;28;20136;-68
2021/03/02 03:38:49;;;;;;;67.40;25.65;;;3.70;98.90;;;;;;5026333;28;20064;-68
2021/03/02 03:41:16;;;;;;;78.45;27.92;;;3.70;98.80;;;;;;5025964;28;20069;-68
2021/03/02 03:43:41;;;;;;;71.15;27.77;;;3.70;98.90;;;;;;5025952;28;20141;-68
2021/03/02 03:46:08;;;;;;;68.63;27.10;;;3.70;99.30;;;;;;5026196;28;20107;-68
2021/03/02 03:48:34;;;;;;;65.40;27.42;;;3.60;99.20;;;;;;5026166;28;20069;-68
2021/03/02 03:51:00;;;;;;;72.25;26.90;;;3.70;98.90;;;;;;5026441;28;20064;-68
2021/03/02 03:53:31;;;;;;;74.25;27.95;;;3.70;99.10;;;;;;5025719;28;20049;-68
2021/03/02 03:55:58;;;;;;;104.13;26.70;;;3.70;99.20;;;;;;5025567;28;20053;-68
2021/03/02 03:58:28;;;;;;;67.20;26.58;;;3.90;98.80;;;;;;5025378;28;20056;-68
2021/03/02 04:00:55;;;;;;;90.93;27.52;;;3.70;98.70;;;;;;5025617;28;20070;-68
2021/03/02 04:03:25;;;;;;;84.18;28.17;;;3.70;99.00;;;;;;5025738;28;20105;-68
2021/03/02 04:05:51;;;;;;;65.20;25.63;;;3.60;99.00;;;;;;5025657;28;20049;-68
2021/03/02 04:08:18;;;;;;;91.72;26.15;;;3.60;99.10;;;;;;5026291;28;20137;-68
2021/03/02 04:10:44;;;;;;;74.47;27.35;;;3.60;98.90;;;;;;5025642;28;20049;-68
2021/03/02 04:13:15;;;;;;;65.38;26.88;;;3.60;99.10;;;;;;5012983;28;20054;-68
2021/03/02 04:15:42;;;;;;;;;;;3.60;99.10;;;;;;5013389;28;20038;-68
2021/03/02 04:18:16;;;;;;;69.45;27.60;;;3.60;99.30;;;;;;5025454;28;19922;-68
2021/03/02 04:20:43;;;;;;;71.35;25.10;;;3.60;99.40;;;;;;5013185;28;20042;-68
2021/03/02 04:23:10;;;;;;;73.63;26.90;;;3.60;99.20;;;;;;5025748;28;20046;-68
2021/03/02 04:25:36;;;;;;;78.53;26.27;;;3.50;99.20;;;;;;5022137;28;20065;-68
2021/03/02 04:28:04;;;;;;;94.20;28.52;;;3.50;99.40;;;;;;5025253;28;20050;-68
2021/03/02 04:30:30;;;;;;;116.65;29.05;;;3.50;99.60;;;;;;5024979;28;20104;-68
2021/03/02 04:32:56;;;;;;;102.38;28.58;;;3.50;99.60;;;;;;5024958;28;20046;-68
2021/03/02 04:35:22;;;;;;;104.10;25.85;;;3.60;99.40;;;;;;5025189;28;20046;-68
2021/03/02 04:37:48;;;;;;;123.63;27.48;;;3.70;99.10;;;;;;5025198;28;20046;-68
2021/03/02 04:40:15;;;;;;;107.47;26.15;;;3.60;98.80;;;;;;5025009;28;20050;-68
2021/03/02 04:42:42;;;;;;;68.45;25.65;;;3.50;99.00;;;;;;5025963;28;20045;-68
2021/03/02 04:45:09;;;;;;;72.15;25.17;;;3.50;99.20;;;;;;5030127;28;20099;-68
2021/03/02 04:47:36;;;;;;;78.55;27.63;;;3.40;99.40;;;;;;5028927;28;20061;-68
2021/03/02 04:50:03;;;;;;;105.47;28.08;;;3.50;99.60;;;;;;5028899;28;20109;-68
2021/03/02 04:52:29;;;;;;;77.40;27.23;;;3.50;99.30;;;;;;5028089;28;20129;-68
2021/03/02 04:54:56;;;;;;;104.38;30.13;;;3.50;99.40;;;;;;5029691;28;20073;-68
2021/03/02 04:57:22;;;;;;;103.25;29.13;;;3.50;99.60;;;;;;5029666;28;20042;-68
2021/03/02 04:59:48;;;;;;;85.82;26.65;;;3.50;99.30;;;;;;5029508;28;20099;-68
2021/03/02 05:02:14;;;;;;;122.78;27.67;;;3.60;99.10;;;;;;5028932;28;20096;-68
2021/03/02 05:04:39;;;;;;;115.88;26.40;;;3.50;99.20;;;;;;5029072;28;20049;-68
2021/03/02 05:07:05;;;;;;;127.32;24.95;;;3.50;99.40;;;;;;5028871;28;20418;-68
2021/03/02 05:09:31;;;;;;;108.95;26.85;;;3.50;99.10;;;;;;5028253;28;20057;-68
2021/03/02 05:11:57;;;;;;;91.18;25.65;;;3.50;99.00;;;;;;5028516;28;20061;-68
2021/03/02 05:14:24;;;;;;;79.30;26.95;;;3.40;99.30;;;;;;5028627;28;20079;-68
2021/03/02 05:16:50;;;;;;;107.78;30.00;;;3.50;99.10;;;;;;5028378;28;20554;-68
2021/03/02 05:19:16;;;;;;;86.82;26.65;;;3.40;99.30;;;;;;5028775;28;20050;-68
2021/03/02 05:21:42;;;;;;;139.70;30.70;;;3.50;99.20;;;;;;5028781;28;20050;-68
2021/03/02 05:24:08;;;;;;;129.40;26.10;;;3.50;99.40;;;;;;5024919;28;20046;-68
2021/03/02 05:26:34;;;;;;;169.48;32.40;;;3.40;99.60;;;;;;5028644;28;20104;-68
2021/03/02 05:29:00;;;;;;;90.20;27.55;;;3.40;99.40;;;;;;5029170;28;20049;-68
2021/03/02 05:31:28;;;;;;;143.77;28.73;;;3.40;99.50;;;;;;5027373;28;20050;-68
2021/03/02 05:33:54;;;;;;;143.80;27.90;;;3.50;99.30;;;;;;5022787;28;20084;-67
2021/03/02 05:36:19;;;;;;;159.02;30.13;;;3.50;98.90;;;;;;5024155;28;20110;-68
2021/03/02 05:38:45;;;;;;;104.78;29.65;;;3.40;99.30;;;;;;5028165;28;20109;-68
2021/03/02 05:41:11;;;;;;;95.65;27.58;;;3.40;99.50;;;;;;5027869;28;20296;-67
2021/03/02 05:43:43;;;;;;;100.35;29.08;;;3.40;99.60;;;;;;5028205;28;20068;-67
2021/03/02 05:46:10;;;;;;;110.70;30.60;;;3.40;99.30;;;;;;5026898;28;20685;-68
2021/03/02 05:48:40;;;;;;;127.38;29.75;;;3.40;99.60;;;;;;5010982;28;20487;-69
2021/03/02 05:51:06;;;;;;;111.38;29.08;;;3.30;99.70;;;;;;5026716;28;20057;-68
2021/03/02 05:53:33;;;;;;;90.15;26.25;;;3.30;99.80;;;;;;5019942;28;20113;-67
2021/03/02 05:55:59;;;;;;;114.47;30.58;;;3.40;99.60;;;;;;5026477;28;20104;-68
2021/03/02 05:58:25;;;;;;;109.20;28.92;;;3.40;99.50;;;;;;5021563;28;20049;-68
2021/03/02 06:00:53;;;;;;;100.13;29.67;;;3.40;99.60;;;;;;5017477;28;20042;-67
2021/03/02 06:03:19;;;;;;;146.32;30.52;;;3.30;99.90;;;;;;5025143;28;20069;-68
2021/03/02 06:05:45;;;;;;;108.30;29.95;;;3.30;99.90;;;;;;5024724;28;20057;-68
2021/03/02 06:08:10;;;;;;;108.15;29.50;;;3.30;99.90;;;;;;5021102;28;20042;-70
2021/03/02 06:10:36;;;;;;;107.25;27.58;;;3.40;99.70;;;;;;5022482;28;20050;-70
2021/03/02 06:13:03;;;;;;;96.68;29.85;;;3.40;99.60;;;;;;5014838;28;20061;-70
2021/03/02 06:15:34;;;;;;;77.53;29.00;;;3.40;99.40;;;;;;5009317;28;20042;-70
2021/03/02 06:18:07;;;;;;;102.80;30.42;;;3.40;99.70;;;;;;5014946;28;20067;-70
2021/03/02 06:20:33;;;;;;;69.15;28.77;;;3.30;99.60;;;;;;5018502;28;20110;-71
2021/03/02 06:22:59;;;;;;;67.80;27.15;;;3.20;99.80;;;;;;5003763;28;20072;-72
2021/03/02 06:25:27;;;;;;;81.40;27.67;;;3.20;99.80;;;;;;5008917;28;20111;-72
2021/03/02 06:27:53;;;;;;;83.13;27.52;;;3.20;99.80;;;;;;5016514;28;20046;-72
2021/03/02 06:30:20;;;;;;;72.70;26.70;;;3.20;99.80;;;;;;5007285;28;20116;-72
2021/03/02 06:32:52;;;;;;;112.07;28.33;;;3.20;99.80;;;;;;5003707;28;20203;-72
2021/03/02 06:35:38;;;;;;;90.47;26.65;;;3.30;99.40;;;;;;5003329;28;20526;-72
2021/03/02 06:38:06;;;;;;;81.13;26.63;;;3.20;99.70;;;;;;5010955;28;20096;-72
2021/03/02 06:40:50;;;;;;;69.72;27.77;;;3.20;99.80;;;;;;5006963;28;20054;-73
2021/03/02 06:43:36;;;;;;;90.15;26.98;;;3.20;99.80;;;;;;5008222;28;20042;-72
2021/03/02 06:46:05;;;;;;;84.45;27.63;;;3.20;99.90;;;;;;5006656;28;20062;-70
2021/03/02 06:48:32;;;;;;;88.60;27.38;;;3.30;99.60;;;;;;5025180;28;20046;-70
2021/03/02 06:50:59;;;;;;;89.72;28.00;;;3.20;99.70;;;;;;5004917;28;20058;-71
2021/03/02 06:53:25;;;;;;;68.45;27.00;;;3.20;99.70;;;;;;5023284;28;20644;-71
2021/03/02 06:55:51;;;;;;;80.88;26.02;;;3.20;99.80;;;;;;5001676;28;20122;-71
2021/03/02 06:58:25;;;;;;;80.57;25.58;;;3.20;99.70;;;;;;5011599;28;20084;-71
2021/03/02 07:00:56;;;;;;;112.15;27.00;;;3.30;99.40;;;;;;4997828;28;20054;-71
2021/03/02 07:03:34;;;;;;;86.97;27.17;;;3.20;99.50;;;;;;5002063;28;20117;-71
2021/03/02 07:06:03;;;;;;;77.65;27.08;;;3.20;99.60;;;;;;5008235;28;20134;-70
2021/03/02 07:08:30;;;;;;;52.28;19.10;;;3.30;99.60;;;;;;5005383;28;20060;-71
2021/03/02 07:10:57;;;;;;;89.80;26.58;;;3.20;99.70;;;;;;4999884;28;20081;-70
2021/03/02 07:13:24;;;;;;;92.80;26.77;;;3.20;99.90;;;;;;5015212;28;20104;-71
2021/03/02 07:15:51;;;;;;;59.38;24.98;;;3.30;99.80;;;;;;5011186;28;20087;-71
2021/03/02 07:18:23;;;;;;;54.05;25.25;;;3.30;99.60;;;;;;5005457;28;20052;-71
2021/03/02 07:20:50;;;;;;;86.45;26.77;;;3.40;99.60;;;;;;4999594;28;20302;-71
2021/03/02 07:23:18;;;;;;;126.10;27.95;;;3.30;99.70;;;;;;5001899;28;20049;-71
2021/03/02 07:25:46;;;;;;;71.88;27.48;;;3.40;99.60;;;;;;5006756;28;20043;-71
2021/03/02 07:28:14;;;;;;;83.13;25.15;;;3.40;99.50;;;;;;5013442;28;20324;-71
2021/03/02 07:30:40;;;;;;;90.80;26.70;;;3.50;99.50;;;;;;5013886;28;20038;-71
2021/03/02 07:33:07;;;;;;;77.63;25.75;;;3.40;99.40;;;;;;5005654;28;20056;-70
2021/03/02 07:35:34;;;;;;;75.85;27.10;;;3.50;99.40;;;;;;5012871;28;20105;-70
2021/03/02 07:38:17;;;;;;;79.07;25.75;;;3.50;99.40;;;;;;5011160;28;20140;-70
2021/03/02 07:40:54;;;;;;;80.95;26.35;;;3.40;99.80;;;;;;5012658;28;20053;-71
2021/03/02 07:43:31;;;;;;;90.30;26.02;;;3.50;99.70;;;;;;4998762;28;20457;-70
2021/03/02 07:45:58;;;;;;;56.60;25.27;;;3.60;99.20;;;;;;5012252;28;20042;-70
2021/03/02 07:48:28;;;;;;;98.50;26.65;;;3.60;99.00;;;;;;5000527;28;20116;-71
2021/03/02 07:51:15;;;;;;;87.45;25.83;;;3.60;99.00;;;;;;5013626;28;20073;-74
2021/03/02 07:53:41;;;;;;;78.05;24.83;;;3.60;99.20;;;;;;5011471;28;20544;-78
2021/03/02 07:56:14;;;;;;;61.72;24.67;;;3.60;99.10;;;;;;5014942;28;20030;-79
2021/03/02 07:58:40;;;;;;;49.55;21.85;;;3.50;99.20;;;;;;5010368;28;20112;-79
2021/03/02 08:01:19;;;;;;;78.30;24.90;;;3.50;98.90;;;;;;5010866;28;20046;-78
2021/03/02 08:03:45;;;;;;;72.20;23.80;;;3.50;99.00;;;;;;5001233;28;20058;-78
2021/03/02 08:06:29;;;;;;;68.05;25.13;;;3.50;99.20;;;;;;5011733;28;20046;-78
2021/03/02 08:08:55;;;;;;;63.90;24.02;;;3.50;99.20;;;;;;5014543;28;20472;-78
2021/03/02 08:11:35;;;;;;;49.65;23.95;;;3.50;99.20;;;;;;5005368;28;20546;-78
2021/03/02 08:14:22;;;;;;;59.67;24.30;;;3.50;98.90;;;;;;5003400;28;20149;-80
2021/03/02 08:17:03;;;;;;;55.00;23.10;;;3.50;99.00;;;;;;4992813;28;20070;-79
2021/03/02 08:19:42;;;;;;;55.50;24.77;;;3.50;98.90;;;;;;5004726;28;20732;-79
2021/03/02 08:22:17;;;;;;;50.95;23.63;;;3.60;99.00;;;;;;5008673;28;20312;-79
2021/03/02 08:24:56;;;;;;;46.10;23.20;;;3.70;99.00;;;;;;5021717;28;20046;-80
2021/03/02 08:30:38;;;;;;;51.05;22.05;;;3.70;98.70;;;;;;4994714;28;20070;-80
2021/03/02 08:33:09;;;;;;;42.72;23.33;;;3.80;98.60;;;;;;4982656;28;20054;-78
2021/03/02 08:35:40;;;;;;;49.83;24.10;;;3.80;98.70;;;;;;4993383;28;20542;-78
2021/03/02 08:38:12;;;;;;;50.08;24.60;;;3.80;98.70;;;;;;4983159;28;20055;-78
2021/03/02 08:40:37;;;;;;;52.38;24.05;;;3.80;98.80;;;;;;4993603;28;20081;-77
2021/03/02 08:43:23;;;;;;;51.45;23.50;;;3.80;98.90;;;;;;4982582;28;20209;-79
2021/03/02 08:45:51;;;;;;;40.83;22.27;;;4.00;98.70;;;;;;4993540;28;20054;-78
2021/03/02 08:48:29;;;;;;;44.17;23.38;;;4.00;98.50;;;;;;4982787;28;20085;-81
2021/03/02 08:51:01;;;;;;;40.92;22.38;;;4.10;98.30;;;;;;4993548;28;20058;-80
2021/03/02 08:53:38;;;;;;;42.15;22.23;;;4.00;98.30;;;;;;4982924;28;20089;-79
2021/03/02 08:56:17;;;;;;;47.25;23.33;;;4.10;98.40;;;;;;4992882;28;20050;-79
2021/03/02 08:58:45;;;;;;;53.25;23.88;;;4.10;98.30;;;;;;4983396;28;20050;-80
2021/03/02 09:01:15;;;;;;;46.90;23.88;;;4.20;98.40;;;;;;4984403;28;20046;-80
2021/03/02 09:03:44;;;;;;;56.08;24.67;;;4.20;98.40;;;;;;4976668;28;20039;-80
2021/03/02 09:06:12;;;;;;;71.05;24.30;;;4.20;98.30;;;;;;4993342;28;20141;-79
2021/03/02 09:09:04;;;;;;;47.63;25.35;;;4.20;98.40;;;;;;5008114;28;20053;-80
2021/03/02 09:11:35;;;;;;;44.00;23.65;;;4.30;98.40;;;;;;5007951;28;20089;-79
2021/03/02 09:14:20;;;;;;;41.60;24.13;;;4.30;98.30;;;;;;5012011;28;20046;-79
2021/03/02 09:16:50;;;;;;;42.17;22.77;;;4.30;98.70;;;;;;5013032;28;20054;-81
2021/03/02 09:19:17;;;;;;;37.80;21.75;;;4.40;98.40;;;;;;5014465;28;20084;-87
2021/03/02 09:22:01;;;;;;;41.40;21.98;;;4.40;98.20;;;;;;5014667;28;20042;-82
2021/03/02 09:24:29;;;;;;;40.90;22.58;;;4.40;98.00;;;;;;5008137;28;20078;-83
2021/03/02 09:26:59;;;;;;;41.33;23.50;;;4.60;98.10;;;;;;5000907;28;20100;-82
2021/03/02 09:29:29;;;;;;;42.75;23.90;;;4.70;97.60;;;;;;5007189;28;20046;-79
2021/03/02 09:31:57;;;;;;;38.97;21.70;;;4.70;97.70;;;;;;5003075;28;21470;-83
2021/03/02 09:34:33;;;;;;;43.92;24.80;;;4.70;97.80;;;;;;5014054;28;20050;-83
2021/03/02 09:37:19;;;;;;;41.60;23.98;;;4.70;97.60;;;;;;5008279;28;20149;-75
2021/03/02 09:40:07;;;;;;;42.90;24.48;;;4.70;97.50;;;;;;5006354;28;20133;-83
2021/03/02 09:42:34;;;;;;;40.85;22.63;;;4.70;97.80;;;;;;5011699;28;20608;-82
2021/03/02 09:45:10;;;;;;;35.33;21.27;;;4.90;98.00;;;;;;5030490;28;20050;-80
2021/03/02 09:47:37;;;;;;;39.75;23.25;;;5.10;96.70;;;;;;5011879;28;20065;-82
2021/03/02 09:50:21;;;;;;;39.88;23.55;;;5.00;97.10;;;;;;5023177;28;20054;-83
2021/03/02 09:52:51;;;;;;;39.22;23.00;;;5.10;97.00;;;;;;5014111;28;20100;-83
2021/03/02 09:55:24;;;;;;;40.85;23.33;;;5.20;97.20;;;;;;5028423;28;20042;-82
2021/03/02 09:57:54;;;;;;;41.60;22.98;;;5.20;97.30;;;;;;5002000;28;20061;-83
2021/03/02 10:00:30;;;;;;;;;;;5.20;97.10;;;;;;5028629;28;20604;-85
2021/03/02 10:03:04;;;;;;;41.42;22.60;;;5.20;97.40;;;;;;5005374;28;19932;-86
2021/03/02 10:05:38;;;;;;;42.05;24.60;;;5.20;97.30;;;;;;5004429;28;20149;-85
2021/03/02 10:08:23;;;;;;;39.38;22.23;;;5.30;97.40;;;;;;5000924;28;20060;-84
2021/03/02 10:10:51;;;;;;;37.40;21.88;;;5.30;97.20;;;;;;5017422;28;20370;-82
2021/03/02 10:13:33;;;;;;;40.63;23.77;;;5.40;96.90;;;;;;5016290;28;20049;-80
2021/03/02 10:16:26;;;;;;;38.72;23.67;;;5.40;96.90;;;;;;5004746;28;20077;-81
2021/03/02 10:18:56;;;;;;;35.75;22.25;;;5.60;96.70;;;;;;5003058;28;20061;-82
2021/03/02 10:21:42;;;;;;;36.67;21.98;;;5.50;96.60;;;;;;5015403;28;20052;-81
2021/03/02 10:24:08;;;;;;;37.42;21.85;;;5.50;96.70;;;;;;4998829;28;20081;-82
2021/03/02 10:26:36;;;;;;;34.47;21.42;;;5.50;96.90;;;;;;5014279;28;20051;-82
2021/03/02 10:29:08;;;;;;;33.90;20.95;;;5.50;96.80;;;;;;5001897;28;20076;-81
2021/03/02 10:31:35;;;;;;;33.60;21.35;;;5.60;96.60;;;;;;5001355;28;20594;-82
2021/03/02 10:34:04;;;;;;;37.88;22.08;;;5.50;96.00;;;;;;4993514;28;20056;-81
2021/03/02 10:36:33;;;;;;;36.17;21.35;;;5.50;96.30;;;;;;5008806;28;20157;-83
2021/03/02 10:39:00;;;;;;;38.22;22.52;;;5.60;96.30;;;;;;5007853;28;20053;-81
2021/03/02 10:41:28;;;;;;;36.55;22.17;;;5.60;96.30;;;;;;5006094;28;20045;-81
2021/03/02 10:43:55;;;;;;;32.05;20.95;;;5.70;96.70;;;;;;5012960;28;20057;-81
2021/03/02 10:46:23;;;;;;;37.40;23.10;;;5.90;96.50;;;;;;5016320;28;20089;-80
2021/03/02 10:48:49;;;;;;;35.53;22.10;;;6.00;96.00;;;;;;5008391;28;20049;-80
2021/03/02 10:51:16;;;;;;;36.70;22.23;;;6.10;95.60;;;;;;4997834;28;20073;-82
2021/03/02 10:53:42;;;;;;;38.63;24.23;;;6.20;96.00;;;;;;5003833;28;20475;-83
2021/03/02 10:56:08;;;;;;;40.05;24.08;;;6.40;96.00;;;;;;5007502;28;20127;-77
2021/03/02 10:58:34;;;;;;;35.20;21.80;;;6.40;95.90;;;;;;5005309;28;20525;-77
2021/03/02 11:01:00;;;;;;;36.28;24.17;;;6.40;95.20;;;;;;5007915;28;20572;-77
2021/03/02 11:03:27;;;;;;;40.67;23.80;;;6.40;95.30;;;;;;4999589;28;20041;-78
2021/03/02 11:05:53;;;;;;;33.38;21.52;;;6.40;95.40;;;;;;5010330;28;20054;-77
2021/03/02 11:08:19;;;;;;;33.65;20.50;;;6.40;95.20;;;;;;5001219;28;20088;-77
2021/03/02 11:10:46;;;;;;;35.92;22.83;;;6.40;95.30;;;;;;5019231;28;20049;-76
2021/03/02 11:13:12;;;;;;;32.88;21.23;;;6.50;95.70;;;;;;5004267;28;20100;-77
2021/03/02 11:15:38;;;;;;;36.38;22.42;;;6.60;95.80;;;;;;5008972;28;20543;-80
2021/03/02 11:18:04;;;;;;;36.40;22.42;;;6.90;95.70;;;;;;4989484;28;20046;-79
2021/03/02 11:20:31;;;;;;;34.60;23.55;;;7.00;95.60;;;;;;5011577;28;20046;-77
2021/03/02 11:22:58;;;;;;;36.30;22.40;;;7.20;95.50;;;;;;5007393;28;20400;-77
2021/03/02 11:25:24;;;;;;;36.05;22.10;;;7.20;95.20;;;;;;5016437;28;20081;-78
2021/03/02 11:27:51;;;;;;;37.38;24.83;;;7.30;95.20;;;;;;5001693;28;20045;-70
2021/03/02 11:30:20;;;;;;;37.47;23.33;;;7.30;95.40;;;;;;5019139;28;20048;-71
2021/03/02 11:32:46;;;;;;;35.75;22.92;;;7.40;95.30;;;;;;5007617;28;20042;-72
2021/03/02 11:35:13;;;;;;;35.60;21.73;;;7.50;95.40;;;;;;5012068;28;20046;-71
2021/03/02 11:37:41;;;;;;;37.53;23.60;;;7.60;95.00;;;;;;5002805;28;20046;-71
2021/03/02 11:40:10;;;;;;;35.40;23.27;;;7.60;95.10;;;;;;5034135;28;20052;-72
2021/03/02 11:42:36;;;;;;;34.85;21.75;;;7.70;95.30;;;;;;5017523;28;20076;-72
2021/03/02 11:45:05;;;;;;;35.40;21.63;;;7.80;95.00;;;;;;5003276;28;20070;-76
2021/03/02 11:47:30;;;;;;;33.75;20.23;;;7.90;94.90;;;;;;5017520;28;20112;-79
2021/03/02 11:49:56;;;;;;;28.25;20.23;;;8.00;94.90;;;;;;5025171;28;20297;-76
2021/03/02 11:52:23;;;;;;;32.53;19.60;;;8.10;94.20;;;;;;5019483;28;20077;-77
2021/03/02 11:54:49;;;;;;;28.70;17.92;;;8.30;93.70;;;;;;5023793;28;20313;-77
2021/03/02 11:57:16;;;;;;;29.83;19.92;;;8.40;93.50;;;;;;5012055;28;20037;-77
2021/03/02 11:59:43;;;;;;;34.85;22.90;;;8.50;92.70;;;;;;5022839;28;20145;-77
2021/03/02 12:02:14;;;;;;;32.78;23.10;;;8.60;93.80;;;;;;5017561;28;20781;-77
2021/03/02 12:04:41;;;;;;;29.00;20.30;;;8.90;93.80;;;;;;5022687;28;20073;-77
2021/03/02 12:07:07;;;;;;;32.10;21.90;;;9.00;93.70;;;;;;5005391;28;20046;-77
2021/03/02 12:09:34;;;;;;;32.72;23.00;;;9.20;93.20;;;;;;5010478;28;20054;-76
2021/03/02 12:12:01;;;;;;;28.10;19.98;;;9.30;92.90;;;;;;5007349;28;20050;-77
2021/03/02 12:14:27;;;;;;;29.20;18.48;;;9.50;92.30;;;;;;5012731;28;20042;-77
2021/03/02 12:16:53;;;;;;;25.63;17.83;;;9.60;91.70;;;;;;5015934;28;20061;-77
2021/03/02 12:19:19;;;;;;;24.95;18.15;;;9.70;91.40;;;;;;5002103;28;20050;-77
2021/03/02 12:21:45;;;;;;;26.65;18.20;;;9.80;91.40;;;;;;5006186;28;20043;-71
2021/03/02 12:24:11;;;;;;;27.75;19.95;;;10.10;90.90;;;;;;5000898;28;20046;-75
2021/03/02 12:26:37;;;;;;;25.50;18.23;;;10.20;90.90;;;;;;5016346;28;20113;-82
2021/03/02 12:29:03;;;;;;;25.35;18.80;;;10.30;91.30;;;;;;5002377;28;20053;-80
2021/03/02 12:31:28;;;;;;;28.00;19.40;;;10.50;91.20;;;;;;5009369;28;20046;-79
2021/03/02 12:33:54;;;;;;;26.25;19.50;;;10.70;91.20;;;;;;4991209;28;20050;-81
2021/03/02 12:36:21;;;;;;;23.02;17.55;;;10.90;90.30;;;;;;5015218;28;20076;-81
2021/03/02 12:38:47;;;;;;;23.63;16.98;;;11.00;90.30;;;;;;5000431;28;20605;-82
2021/03/02 12:41:13;;;;;;;23.38;17.73;;;11.30;89.00;;;;;;5013702;28;20046;-81
2021/03/02 12:43:39;;;;;;;21.15;16.30;;;11.40;88.20;;;;;;5006666;28;20053;-81
2021/03/02 12:46:05;;;;;;;23.40;17.50;;;11.60;86.10;;;;;;5033612;28;20549;-78
2021/03/02 12:48:31;;;;;;;24.60;17.15;;;11.90;85.90;;;;;;5017788;28;20125;-80
2021/03/02 12:50:56;;;;;;;21.92;17.13;;;12.20;84.90;;;;;;5030871;28;20065;-78